sensor_id;sensor_type;location;lat;lon;timestamp;temperature;humidity
36556;DHT22;40859;50.560;7.268;2023-04-03T00:01:16;21.70;78.00
36556;DHT22;40859;50.560;7.268;2023-04-03T00:03:42;21.70;77.70
36556;DHT22;40859;50.560;7.268;2023-04-03T00:06:08;21.60;78.20
36556;DHT22;40859;50.560;7.268;2023-04-03T00:08:36;21.60;78.20
36556;DHT22;40859;50.560;7.268;2023-04-03T00:11:02;21.60;78.40
36556;DHT22;40859;50.560;7.268;2023-04-03T00:13:29;21.60;78.20
36556;DHT22;40859;50.560;7.268;2023-04-03T00:15:55;21.60;78.30
36556;DHT22;40859;50.560;7.268;2023-04-03T00:18:21;21.70;78.30
36556;DHT22;40859;50.560;7.268;2023-04-03T00:20:47;21.60;78.30
36556;DHT22;40859;50.560;7.268;2023-04-03T00:23:13;21.60;78.20
36556;DHT22;40859;50.560;7.268;2023-04-03T00:25:39;21.60;78.20
36556;DHT22;40859;50.560;7.268;2023-04-03T00:28:05;21.60;78.20
36556;DHT22;40859;50.560;7.268;2023-04-03T00:30:31;21.60;77.60
36556;DHT22;40859;50.560;7.268;2023-04-03T00:32:57;21.60;77.00
36556;DHT22;40859;50.560;7.268;2023-04-03T00:35:24;21.60;76.80
36556;DHT22;40859;50.560;7.268;2023-04-03T00:37:52;21.50;76.60
36556;DHT22;40859;50.560;7.268;2023-04-03T00:40:20;21.60;76.10
36556;DHT22;40859;50.560;7.268;2023-04-03T00:42:48;21.50;76.60
36556;DHT22;40859;50.560;7.268;2023-04-03T00:45:33;21.50;76.70
36556;DHT22;40859;50.560;7.268;2023-04-03T00:48:01;21.50;75.10
36556;DHT22;40859;50.560;7.268;2023-04-03T00:50:29;21.50;75.50
36556;DHT22;40859;50.560;7.268;2023-04-03T00:52:56;21.50;75.80
36556;DHT22;40859;50.560;7.268;2023-04-03T00:55:23;21.50;75.90
36556;DHT22;40859;50.560;7.268;2023-04-03T00:57:49;21.50;75.90
36556;DHT22;40859;50.560;7.268;2023-04-03T01:00:18;21.50;76.00
36556;DHT22;40859;50.560;7.268;2023-04-03T01:02:45;21.40;75.00
36556;DHT22;40859;50.560;7.268;2023-04-03T01:05:12;21.40;74.90
36556;DHT22;40859;50.560;7.268;2023-04-03T01:07:38;21.40;74.70
36556;DHT22;40859;50.560;7.268;2023-04-03T01:10:09;21.40;75.10
36556;DHT22;40859;50.560;7.268;2023-04-03T01:12:40;21.40;75.20
36556;DHT22;40859;50.560;7.268;2023-04-03T01:15:16;21.40;75.60
36556;DHT22;40859;50.560;7.268;2023-04-03T01:17:54;21.40;75.10
36556;DHT22;40859;50.560;7.268;2023-04-03T01:21:54;21.40;75.90
36556;DHT22;40859;50.560;7.268;2023-04-03T01:24:31;21.40;75.90
36556;DHT22;40859;50.560;7.268;2023-04-03T01:26:59;21.40;75.30
36556;DHT22;40859;50.560;7.268;2023-04-03T01:29:26;21.40;75.00
36556;DHT22;40859;50.560;7.268;2023-04-03T01:31:58;21.40;75.50
36556;DHT22;40859;50.560;7.268;2023-04-03T01:34:24;21.40;75.00
36556;DHT22;40859;50.560;7.268;2023-04-03T01:36:50;21.40;74.20
36556;DHT22;40859;50.560;7.268;2023-04-03T01:39:17;21.40;75.10
36556;DHT22;40859;50.560;7.268;2023-04-03T01:41:42;21.40;75.80
36556;DHT22;40859;50.560;7.268;2023-04-03T01:44:08;21.40;75.00
36556;DHT22;40859;50.560;7.268;2023-04-03T01:46:34;21.40;74.50
36556;DHT22;40859;50.560;7.268;2023-04-03T01:49:00;21.30;75.00
36556;DHT22;40859;50.560;7.268;2023-04-03T01:51:26;21.30;75.00
36556;DHT22;40859;50.560;7.268;2023-04-03T20:17:36;22.00;74.40
36556;DHT22;40859;50.560;7.268;2023-04-03T20:20:03;22.00;74.30
36556;DHT22;40859;50.560;7.268;2023-04-03T20:22:31;22.00;74.40
36556;DHT22;40859;50.560;7.268;2023-04-03T20:24:57;22.00;74.50
36556;DHT22;40859;50.560;7.268;2023-04-03T20:27:29;22.00;74.40
36556;DHT22;40859;50.560;7.268;2023-04-03T20:29:56;22.00;74.40
36556;DHT22;40859;50.560;7.268;2023-04-03T20:32:22;22.00;74.50
36556;DHT22;40859;50.560;7.268;2023-04-03T20:34:48;22.00;74.50
36556;DHT22;40859;50.560;7.268;2023-04-03T20:37:14;22.00;74.60
36556;DHT22;40859;50.560;7.268;2023-04-03T20:39:46;22.00;74.60
36556;DHT22;40859;50.560;7.268;2023-04-03T20:42:12;22.00;74.70
36556;DHT22;40859;50.560;7.268;2023-04-03T20:44:38;22.00;74.80
36556;DHT22;40859;50.560;7.268;2023-04-03T20:47:05;22.00;74.90
36556;DHT22;40859;50.560;7.268;2023-04-03T20:49:33;22.00;74.80
36556;DHT22;40859;50.560;7.268;2023-04-03T20:52:00;22.00;74.70
36556;DHT22;40859;50.560;7.268;2023-04-03T20:54:26;22.00;74.80
36556;DHT22;40859;50.560;7.268;2023-04-03T20:56:52;22.00;74.80
36556;DHT22;40859;50.560;7.268;2023-04-03T20:59:19;22.00;74.80
36556;DHT22;40859;50.560;7.268;2023-04-03T21:01:45;22.00;74.90
36556;DHT22;40859;50.560;7.268;2023-04-03T21:04:29;22.00;75.00
36556;DHT22;40859;50.560;7.268;2023-04-03T21:19:37;22.00;75.00
36556;DHT22;40859;50.560;7.268;2023-04-03T21:22:11;22.00;75.20
36556;DHT22;40859;50.560;7.268;2023-04-03T21:24:37;22.00;75.20
36556;DHT22;40859;50.560;7.268;2023-04-03T21:27:03;22.00;75.20
36556;DHT22;40859;50.560;7.268;2023-04-03T21:29:29;22.00;75.10
36556;DHT22;40859;50.560;7.268;2023-04-03T21:31:57;22.00;75.20
36556;DHT22;40859;50.560;7.268;2023-04-03T21:34:24;22.00;75.20
36556;DHT22;40859;50.560;7.268;2023-04-03T21:36:53;22.00;75.10
36556;DHT22;40859;50.560;7.268;2023-04-03T21:39:20;22.00;75.10
36556;DHT22;40859;50.560;7.268;2023-04-03T21:41:49;22.00;75.10
36556;DHT22;40859;50.560;7.268;2023-04-03T21:44:16;22.00;75.10
36556;DHT22;40859;50.560;7.268;2023-04-03T21:46:42;22.00;75.00
36556;DHT22;40859;50.560;7.268;2023-04-03T21:49:08;22.00;74.90
36556;DHT22;40859;50.560;7.268;2023-04-03T21:51:35;22.00;74.70
36556;DHT22;40859;50.560;7.268;2023-04-03T21:54:01;22.00;74.70
36556;DHT22;40859;50.560;7.268;2023-04-03T21:56:27;22.00;74.70
36556;DHT22;40859;50.560;7.268;2023-04-03T21:58:56;22.00;74.70
36556;DHT22;40859;50.560;7.268;2023-04-03T22:01:25;22.00;74.60
36556;DHT22;40859;50.560;7.268;2023-04-03T22:03:50;22.00;74.70
36556;DHT22;40859;50.560;7.268;2023-04-03T22:06:17;22.00;74.70
36556;DHT22;40859;50.560;7.268;2023-04-03T22:08:43;22.00;75.50
36556;DHT22;40859;50.560;7.268;2023-04-03T22:11:14;22.00;74.70
36556;DHT22;40859;50.560;7.268;2023-04-03T22:13:41;22.00;74.70
36556;DHT22;40859;50.560;7.268;2023-04-03T22:16:08;22.00;74.50
36556;DHT22;40859;50.560;7.268;2023-04-03T22:18:34;22.00;74.70
36556;DHT22;40859;50.560;7.268;2023-04-03T22:21:00;22.00;74.50
36556;DHT22;40859;50.560;7.268;2023-04-03T22:23:26;22.00;74.50
36556;DHT22;40859;50.560;7.268;2023-04-03T22:26:06;22.00;74.70
36556;DHT22;40859;50.560;7.268;2023-04-03T22:28:36;22.00;74.40
36556;DHT22;40859;50.560;7.268;2023-04-03T22:31:03;22.00;74.50
36556;DHT22;40859;50.560;7.268;2023-04-03T22:33:32;22.00;74.50
36556;DHT22;40859;50.560;7.268;2023-04-03T22:35:58;22.00;74.30
36556;DHT22;40859;50.560;7.268;2023-04-03T22:38:24;22.00;74.40
36556;DHT22;40859;50.560;7.268;2023-04-03T22:41:00;22.00;74.50
36556;DHT22;40859;50.560;7.268;2023-04-03T22:43:28;22.00;74.40
36556;DHT22;40859;50.560;7.268;2023-04-03T22:45:55;22.00;74.30
36556;DHT22;40859;50.560;7.268;2023-04-03T22:48:22;22.00;74.30
36556;DHT22;40859;50.560;7.268;2023-04-03T22:50:49;22.00;74.20
36556;DHT22;40859;50.560;7.268;2023-04-03T22:53:16;22.00;74.20
36556;DHT22;40859;50.560;7.268;2023-04-03T22:55:42;22.00;74.10
36556;DHT22;40859;50.560;7.268;2023-04-03T22:58:08;22.00;74.20
36556;DHT22;40859;50.560;7.268;2023-04-03T23:00:34;22.00;75.00
36556;DHT22;40859;50.560;7.268;2023-04-03T23:03:00;22.00;74.10
36556;DHT22;40859;50.560;7.268;2023-04-03T23:05:27;22.00;74.20
36556;DHT22;40859;50.560;7.268;2023-04-03T23:07:53;22.00;74.10
36556;DHT22;40859;50.560;7.268;2023-04-03T23:10:20;22.00;74.10
36556;DHT22;40859;50.560;7.268;2023-04-03T23:12:46;22.00;74.10
36556;DHT22;40859;50.560;7.268;2023-04-03T23:15:13;22.00;74.10
36556;DHT22;40859;50.560;7.268;2023-04-03T23:17:45;22.00;74.80
36556;DHT22;40859;50.560;7.268;2023-04-03T23:20:11;22.00;73.90
36556;DHT22;40859;50.560;7.268;2023-04-03T23:22:37;22.00;73.70
36556;DHT22;40859;50.560;7.268;2023-04-03T23:25:04;22.00;74.00
36556;DHT22;40859;50.560;7.268;2023-04-03T23:27:30;22.00;74.10
36556;DHT22;40859;50.560;7.268;2023-04-03T23:29:56;22.00;73.60
36556;DHT22;40859;50.560;7.268;2023-04-03T23:32:22;21.90;74.00
36556;DHT22;40859;50.560;7.268;2023-04-03T23:34:48;21.90;74.00
36556;DHT22;40859;50.560;7.268;2023-04-03T23:37:14;21.90;73.60
36556;DHT22;40859;50.560;7.268;2023-04-03T23:39:40;21.90;73.50
36556;DHT22;40859;50.560;7.268;2023-04-03T23:42:06;21.90;73.50
36556;DHT22;40859;50.560;7.268;2023-04-03T23:44:35;21.90;73.30
36556;DHT22;40859;50.560;7.268;2023-04-03T23:47:01;21.90;73.10
36556;DHT22;40859;50.560;7.268;2023-04-03T23:49:27;21.90;72.60
36556;DHT22;40859;50.560;7.268;2023-04-03T23:51:53;21.90;72.70
36556;DHT22;40859;50.560;7.268;2023-04-03T23:54:21;22.00;72.90
36556;DHT22;40859;50.560;7.268;2023-04-03T23:56:50;21.90;73.00
36556;DHT22;40859;50.560;7.268;2023-04-03T23:59:16;21.90;73.00
